createdAt,value
2023-04-14T00:00:41.616Z,783.00
2023-04-14T00:01:41.648Z,781.00
2023-04-14T00:02:41.900Z,781.00
2023-04-14T00:03:41.823Z,782.00
2023-04-14T00:04:41.952Z,780.00
2023-04-14T00:05:41.764Z,781.00
2023-04-14T00:06:41.796Z,784.00
2023-04-14T00:07:41.800Z,783.00
2023-04-14T00:08:41.819Z,780.00
2023-04-14T00:09:41.837Z,779.00
2023-04-14T00:10:41.907Z,779.00
2023-04-14T00:11:41.897Z,779.00
2023-04-14T00:12:41.879Z,781.00
2023-04-14T00:13:41.896Z,780.00
2023-04-14T00:14:41.911Z,780.00
2023-04-14T00:15:41.959Z,781.00
2023-04-14T00:16:42.008Z,777.00
2023-04-14T00:17:42.058Z,776.00
2023-04-14T00:18:42.029Z,778.00
2023-04-14T00:19:42.067Z,777.00
2023-04-14T00:20:42.095Z,776.00
2023-04-14T00:21:42.117Z,777.00
2023-04-14T00:22:42.149Z,777.00
2023-04-14T00:23:42.180Z,776.00
2023-04-14T00:24:42.244Z,775.00
2023-04-14T00:25:42.237Z,776.00
2023-04-14T00:26:42.266Z,774.00
2023-04-14T00:27:42.311Z,772.00
2023-04-14T00:28:42.323Z,771.00
2023-04-14T00:29:42.349Z,773.00
2023-04-14T00:30:42.403Z,773.00
2023-04-14T00:31:42.552Z,777.00
2023-04-14T00:32:42.437Z,780.00
2023-04-14T00:33:42.460Z,779.00
2023-04-14T00:34:42.475Z,779.00
2023-04-14T00:35:42.532Z,779.00
2023-04-14T00:36:42.556Z,778.00
2023-04-14T00:37:42.571Z,781.00
2023-04-14T00:38:42.594Z,781.00
2023-04-14T00:39:42.620Z,777.00
2023-04-14T00:40:42.629Z,777.00
2023-04-14T00:41:42.657Z,776.00
2023-04-14T00:42:42.715Z,776.00
2023-04-14T00:43:42.669Z,773.00
2023-04-14T00:44:42.675Z,771.00
2023-04-14T00:45:42.725Z,770.00
2023-04-14T00:46:42.874Z,768.00
2023-04-14T00:47:42.781Z,768.00
2023-04-14T00:48:42.758Z,771.00
2023-04-14T00:49:42.759Z,771.00
2023-04-14T00:50:42.939Z,770.00
2023-04-14T00:51:42.835Z,772.00
2023-04-14T00:52:42.903Z,772.00
2023-04-14T00:53:42.900Z,770.00
2023-04-14T00:54:42.919Z,771.00
2023-04-14T00:55:42.952Z,773.00
2023-04-14T00:56:42.935Z,772.00
2023-04-14T00:57:42.956Z,775.00
2023-04-14T00:58:42.985Z,775.00
2023-04-14T00:59:43.016Z,776.00
2023-04-14T01:00:43.029Z,779.00
2023-04-14T01:01:43.120Z,780.00
2023-04-14T01:02:43.303Z,776.00
2023-04-14T01:03:43.403Z,774.00
2023-04-14T01:04:53.590Z,772.00
2023-04-14T01:05:44.105Z,774.00
2023-04-14T01:06:43.377Z,774.00
2023-04-14T01:07:43.085Z,776.00
2023-04-14T01:08:43.071Z,774.00
2023-04-14T01:09:43.073Z,771.00
2023-04-14T01:10:44.888Z,767.00
2023-04-14T01:11:43.050Z,764.00
2023-04-14T01:12:43.048Z,764.00
2023-04-14T01:13:43.029Z,763.00
2023-04-14T01:14:43.028Z,764.00
2023-04-14T01:15:43.053Z,764.00
2023-04-14T01:16:43.024Z,766.00
2023-04-14T01:17:43.022Z,765.00
2023-04-14T01:18:43.031Z,764.00
2023-04-14T01:19:42.977Z,762.00
2023-04-14T01:20:42.990Z,763.00
2023-04-14T01:21:42.985Z,763.00
2023-04-14T01:22:42.967Z,763.00
2023-04-14T01:23:42.974Z,764.00
2023-04-14T01:24:42.966Z,763.00
2023-04-14T01:25:42.978Z,762.00
2023-04-14T01:26:42.987Z,766.00
2023-04-14T01:27:42.996Z,766.00
2023-04-14T01:28:43.015Z,767.00
2023-04-14T01:29:43.070Z,765.00
2023-04-14T01:30:43.060Z,764.00
2023-04-14T01:31:43.121Z,767.00
2023-04-14T01:32:43.141Z,769.00
2023-04-14T01:33:43.124Z,768.00
2023-04-14T01:34:43.125Z,768.00
2023-04-14T01:35:43.124Z,767.00
2023-04-14T01:36:43.133Z,769.00
2023-04-14T01:37:43.131Z,768.00
2023-04-14T01:38:43.168Z,768.00
2023-04-14T01:39:43.130Z,767.00
2023-04-14T01:40:43.138Z,766.00
2023-04-14T01:41:43.155Z,767.00
2023-04-14T01:42:43.185Z,767.00
2023-04-14T01:43:43.178Z,768.00
2023-04-14T01:44:43.164Z,768.00
2023-04-14T01:45:43.420Z,771.00
2023-04-14T01:46:43.200Z,768.00
2023-04-14T01:47:43.204Z,767.00
2023-04-14T01:48:43.255Z,768.00
2023-04-14T01:49:43.237Z,765.00
2023-04-14T01:50:43.230Z,764.00
2023-04-14T01:51:43.210Z,766.00
2023-04-14T01:52:43.205Z,762.00
2023-04-14T01:53:43.226Z,762.00
2023-04-14T01:54:43.233Z,763.00
2023-04-14T01:55:43.262Z,765.00
2023-04-14T01:56:43.271Z,766.00
2023-04-14T01:57:43.262Z,769.00
2023-04-14T01:58:43.264Z,767.00
2023-04-14T01:59:43.338Z,765.00
2023-04-14T02:00:43.307Z,764.00
2023-04-14T02:01:43.294Z,763.00
2023-04-14T02:02:43.468Z,760.00
2023-04-14T02:03:43.392Z,758.00
2023-04-14T02:04:43.281Z,763.00
2023-04-14T02:05:43.273Z,760.00
2023-04-14T02:06:43.250Z,760.00
2023-04-14T02:07:43.245Z,761.00
2023-04-14T02:08:43.240Z,760.00
2023-04-14T02:09:43.252Z,760.00
2023-04-14T02:10:43.247Z,758.00
2023-04-14T02:11:43.277Z,759.00
2023-04-14T02:12:43.239Z,762.00
2023-04-14T02:13:43.245Z,761.00
2023-04-14T02:14:43.296Z,761.00
2023-04-14T02:15:43.273Z,761.00
2023-04-14T02:16:43.350Z,762.00
2023-04-14T02:17:43.341Z,764.00
2023-04-14T02:18:43.280Z,765.00
2023-04-14T02:19:43.301Z,762.00
2023-04-14T02:20:43.356Z,761.00
2023-04-14T02:21:43.322Z,758.00
2023-04-14T02:22:43.327Z,760.00
2023-04-14T02:23:43.370Z,757.00
2023-04-14T02:24:43.334Z,755.00
2023-04-14T02:25:43.358Z,757.00
2023-04-14T02:26:43.409Z,756.00
2023-04-14T02:27:43.360Z,755.00
2023-04-14T02:28:43.363Z,755.00
2023-04-14T02:29:43.381Z,756.00
2023-04-14T02:30:43.426Z,753.00
2023-04-14T02:31:43.395Z,752.00
2023-04-14T02:32:43.449Z,750.00
2023-04-14T02:33:43.417Z,753.00
2023-04-14T02:34:43.426Z,756.00
2023-04-14T02:35:43.392Z,756.00
2023-04-14T02:36:43.407Z,754.00
2023-04-14T02:37:43.439Z,753.00
2023-04-14T02:38:43.448Z,752.00
2023-04-14T02:39:43.439Z,751.00
2023-04-14T02:40:43.434Z,751.00
2023-04-14T02:41:43.465Z,751.00
2023-04-14T02:42:43.462Z,751.00
2023-04-14T02:43:43.470Z,751.00
2023-04-14T02:44:43.470Z,753.00
2023-04-14T02:45:43.580Z,753.00
2023-04-14T02:46:43.566Z,755.00
2023-04-14T02:47:43.603Z,756.00
2023-04-14T02:48:43.531Z,757.00
2023-04-14T02:49:43.552Z,759.00
2023-04-14T02:50:43.561Z,759.00
2023-04-14T02:51:43.552Z,758.00
2023-04-14T02:52:43.561Z,758.00
2023-04-14T02:53:43.561Z,757.00
2023-04-14T02:54:43.605Z,758.00
2023-04-14T02:55:43.604Z,760.00
2023-04-14T02:56:43.644Z,758.00
2023-04-14T02:57:43.606Z,759.00
2023-04-14T02:58:43.620Z,759.00
2023-04-14T02:59:43.652Z,761.00
2023-04-14T03:00:43.677Z,761.00
2023-04-14T03:01:43.747Z,763.00
2023-04-14T03:02:43.791Z,761.00
2023-04-14T03:03:43.738Z,759.00
2023-04-14T03:04:43.712Z,759.00
2023-04-14T03:05:43.699Z,759.00
2023-04-14T03:06:43.701Z,762.00
2023-04-14T03:07:43.686Z,762.00
2023-04-14T03:08:43.687Z,760.00
2023-04-14T03:09:43.713Z,757.00
2023-04-14T03:10:43.706Z,755.00
2023-04-14T03:11:43.761Z,752.00
2023-04-14T03:12:43.738Z,750.00
2023-04-14T03:13:43.751Z,752.00
2023-04-14T03:14:43.723Z,751.00
2023-04-14T03:15:43.793Z,748.00
2023-04-14T03:16:43.748Z,749.00
2023-04-14T03:17:43.818Z,752.00
2023-04-14T03:18:43.732Z,754.00
2023-04-14T03:19:43.691Z,755.00
2023-04-14T03:20:43.698Z,755.00
2023-04-14T03:21:43.674Z,755.00
2023-04-14T03:22:43.702Z,757.00
2023-04-14T03:23:43.669Z,756.00
2023-04-14T03:24:43.672Z,756.00
2023-04-14T03:25:43.668Z,753.00
2023-04-14T03:26:43.714Z,748.00
2023-04-14T03:27:43.682Z,750.00
2023-04-14T03:28:43.651Z,751.00
2023-04-14T03:29:43.653Z,754.00
2023-04-14T03:30:43.665Z,753.00
2023-04-14T03:31:43.772Z,754.00
2023-04-14T03:32:43.736Z,753.00
2023-04-14T03:33:43.646Z,753.00
2023-04-14T03:34:43.657Z,753.00
2023-04-14T03:35:43.689Z,754.00
2023-04-14T03:36:43.650Z,754.00
2023-04-14T03:37:43.650Z,754.00
2023-04-14T03:38:43.657Z,753.00
2023-04-14T03:39:43.644Z,754.00
2023-04-14T03:40:43.648Z,754.00
2023-04-14T03:41:43.692Z,753.00
2023-04-14T03:42:43.661Z,754.00
2023-04-14T03:43:43.652Z,752.00
2023-04-14T03:44:43.681Z,752.00
2023-04-14T03:45:43.705Z,754.00
2023-04-14T03:46:43.792Z,754.00
2023-04-14T03:47:43.802Z,755.00
2023-04-14T03:48:43.755Z,755.00
2023-04-14T03:49:43.747Z,755.00
2023-04-14T03:50:43.773Z,753.00
2023-04-14T03:51:43.770Z,751.00
2023-04-14T03:52:43.810Z,751.00
2023-04-14T03:53:43.753Z,752.00
2023-04-14T03:54:43.773Z,750.00
2023-04-14T03:55:43.779Z,748.00
2023-04-14T03:56:43.813Z,749.00
2023-04-14T03:57:43.794Z,749.00
2023-04-14T03:58:43.791Z,750.00
2023-04-14T03:59:43.802Z,748.00
2023-04-14T04:00:43.798Z,749.00
2023-04-14T04:01:43.889Z,749.00
2023-04-14T04:02:43.904Z,750.00
2023-04-14T04:03:44.104Z,751.00
2023-04-14T04:04:44.005Z,749.00
2023-04-14T04:05:43.894Z,748.00
2023-04-14T04:06:43.848Z,749.00
2023-04-14T04:07:43.863Z,751.00
2023-04-14T04:08:43.823Z,751.00
2023-04-14T04:09:43.830Z,749.00
2023-04-14T04:10:43.858Z,749.00
2023-04-14T04:11:43.866Z,750.00
2023-04-14T04:12:43.873Z,751.00
2023-04-14T04:13:43.846Z,751.00
2023-04-14T04:14:43.867Z,751.00
2023-04-14T04:15:43.893Z,750.00
2023-04-14T04:16:43.954Z,751.00
2023-04-14T04:17:43.963Z,753.00
2023-04-14T04:18:43.866Z,751.00
2023-04-14T04:19:43.894Z,751.00
2023-04-14T04:20:43.913Z,752.00
2023-04-14T04:21:43.874Z,754.00
2023-04-14T04:22:43.880Z,753.00
2023-04-14T04:23:43.907Z,752.00
2023-04-14T04:24:43.937Z,750.00
2023-04-14T04:25:43.925Z,751.00
2023-04-14T04:26:43.930Z,750.00
2023-04-14T04:27:43.892Z,751.00
2023-04-14T04:28:43.951Z,752.00
2023-04-14T04:29:43.914Z,752.00
2023-04-14T04:30:43.950Z,753.00
2023-04-14T04:31:43.988Z,753.00
2023-04-14T04:32:43.950Z,755.00
2023-04-14T04:33:43.926Z,758.00
2023-04-14T04:34:43.916Z,758.00
2023-04-14T04:35:43.949Z,759.00
2023-04-14T04:36:43.920Z,759.00
2023-04-14T04:37:43.952Z,759.00
2023-04-14T04:38:43.932Z,754.00
2023-04-14T04:39:43.972Z,751.00
2023-04-14T04:40:43.966Z,752.00
2023-04-14T04:41:43.998Z,754.00
2023-04-14T04:42:44.024Z,757.00
2023-04-14T04:43:44.043Z,755.00
2023-04-14T04:44:44.042Z,754.00
2023-04-14T04:45:44.122Z,753.00
2023-04-14T04:46:44.132Z,749.00
2023-04-14T04:47:44.124Z,749.00
2023-04-14T04:48:44.100Z,751.00
2023-04-14T04:49:44.089Z,753.00
2023-04-14T04:50:44.120Z,750.00
2023-04-14T04:51:44.125Z,749.00
2023-04-14T04:52:44.141Z,748.00
2023-04-14T04:53:44.120Z,749.00
2023-04-14T04:54:44.171Z,749.00
2023-04-14T04:55:44.145Z,747.00
2023-04-14T04:56:44.149Z,750.00
2023-04-14T04:57:44.181Z,748.00
2023-04-14T04:58:44.195Z,748.00
2023-04-14T04:59:44.205Z,747.00
2023-04-14T05:00:44.215Z,749.00
2023-04-14T05:01:44.318Z,746.00
2023-04-14T05:02:44.347Z,748.00
2023-04-14T05:03:44.276Z,750.00
2023-04-14T05:04:44.328Z,748.00
2023-04-14T05:05:44.345Z,748.00
2023-04-14T05:06:44.283Z,750.00
2023-04-14T05:07:44.326Z,747.00
2023-04-14T05:08:44.298Z,749.00
2023-04-14T05:09:44.265Z,752.00
2023-04-14T05:10:44.287Z,750.00
2023-04-14T05:11:44.286Z,749.00
2023-04-14T05:12:44.307Z,749.00
2023-04-14T05:13:44.371Z,748.00
2023-04-14T05:14:44.395Z,747.00
2023-04-14T05:15:44.481Z,747.00
2023-04-14T05:16:44.450Z,743.00
2023-04-14T05:17:44.564Z,743.00
2023-04-14T05:18:44.525Z,743.00
2023-04-14T05:19:44.511Z,741.00
2023-04-14T05:20:44.540Z,742.00
2023-04-14T05:21:44.547Z,744.00
2023-04-14T05:22:44.536Z,747.00
2023-04-14T05:23:44.577Z,741.00
2023-04-14T05:24:44.630Z,666.00
2023-04-14T05:25:47.084Z,662.00
2023-04-14T05:27:01.810Z,662.00
2023-04-14T05:27:45.566Z,659.00
2023-04-14T05:28:44.550Z,662.00
2023-04-14T05:29:44.618Z,661.00
2023-04-14T05:30:44.568Z,672.00
2023-04-14T05:31:44.601Z,687.00
2023-04-14T05:32:44.661Z,691.00
2023-04-14T05:33:44.968Z,692.00
2023-04-14T05:34:44.496Z,683.00
2023-04-14T05:35:44.480Z,677.00
2023-04-14T05:36:44.487Z,680.00
2023-04-14T05:37:44.502Z,697.00
2023-04-14T05:38:44.457Z,794.00
2023-04-14T05:39:44.458Z,867.00
2023-04-14T05:40:44.460Z,867.00
2023-04-14T05:41:44.543Z,890.00
2023-04-14T05:42:44.443Z,907.00
2023-04-14T05:43:44.455Z,928.00
2023-04-14T05:44:44.487Z,939.00
2023-04-14T05:45:44.419Z,970.00
2023-04-14T05:46:44.444Z,1006.00
2023-04-14T05:47:44.737Z,1021.00
2023-04-14T05:48:44.400Z,1060.00
2023-04-14T05:49:44.569Z,1083.00
2023-04-14T05:50:44.508Z,1101.00
2023-04-14T05:51:44.494Z,1141.00
2023-04-14T05:52:44.690Z,1191.00
2023-04-14T05:53:44.637Z,1217.00
2023-04-14T05:54:44.691Z,1254.00
2023-04-14T05:55:44.712Z,1283.00
2023-04-14T05:56:44.768Z,1307.00
2023-04-14T05:57:44.835Z,1411.00
2023-04-14T05:58:44.896Z,1407.00
2023-04-14T05:59:44.966Z,1429.00
2023-04-14T06:00:45.161Z,1418.00
2023-04-14T06:01:45.139Z,1423.00
2023-04-14T06:02:45.344Z,1444.00
2023-04-14T06:03:45.533Z,1475.00
2023-04-14T06:04:45.287Z,1480.00
2023-04-14T06:05:45.261Z,1484.00
2023-04-14T06:06:45.308Z,1491.00
2023-04-14T06:07:45.379Z,1505.00
2023-04-14T06:08:45.368Z,1534.00
2023-04-14T06:09:45.404Z,1539.00
2023-04-14T06:10:45.474Z,1630.00
2023-04-14T06:11:45.494Z,1630.00
2023-04-14T06:12:45.517Z,1698.00
2023-04-14T06:13:45.536Z,1685.00
2023-04-14T06:14:45.614Z,1689.00
2023-04-14T06:15:45.592Z,1691.00
2023-04-14T06:16:45.672Z,1617.00
2023-04-14T06:17:45.705Z,1615.00
2023-04-14T06:18:45.804Z,1657.00
2023-04-14T06:19:45.644Z,1655.00
2023-04-14T06:20:45.661Z,1710.00
2023-04-14T06:21:45.674Z,1712.00
2023-04-14T06:22:45.698Z,1719.00
2023-04-14T06:23:45.695Z,1739.00
2023-04-14T06:24:45.707Z,1820.00
2023-04-14T06:25:45.702Z,1806.00
2023-04-14T06:26:45.791Z,1618.00
2023-04-14T06:27:45.752Z,1274.00
2023-04-14T06:28:45.815Z,1281.00
2023-04-14T06:29:45.790Z,1498.00
2023-04-14T06:30:45.856Z,1468.00
2023-04-14T06:31:45.928Z,1469.00
2023-04-14T06:32:45.903Z,1476.00
2023-04-14T06:33:45.918Z,1493.00
2023-04-14T06:34:45.910Z,1509.00
2023-04-14T06:35:45.973Z,1553.00
2023-04-14T06:36:45.991Z,1652.00
2023-04-14T06:37:45.978Z,1634.00
2023-04-14T06:38:46.492Z,1604.00
2023-04-14T06:39:46.032Z,1517.00
2023-04-14T06:40:46.066Z,1540.00
2023-04-14T06:41:46.106Z,1550.00
2023-04-14T06:42:46.142Z,1541.00
2023-04-14T06:43:46.134Z,1540.00
2023-04-14T06:44:46.174Z,1544.00
2023-04-14T06:45:46.265Z,1548.00
2023-04-14T06:46:46.510Z,1543.00
2023-04-14T06:47:46.374Z,1537.00
2023-04-14T06:48:46.316Z,1532.00
2023-04-14T06:49:46.327Z,1526.00
2023-04-14T06:50:46.373Z,1520.00
2023-04-14T06:51:46.421Z,1505.00
2023-04-14T06:52:46.485Z,1499.00
2023-04-14T06:53:46.489Z,1493.00
2023-04-14T06:54:46.580Z,1490.00
2023-04-14T06:55:46.579Z,1486.00
2023-04-14T06:56:46.676Z,1473.00
2023-04-14T06:57:46.716Z,1469.00
2023-04-14T06:58:46.775Z,1466.00
2023-04-14T06:59:46.786Z,1462.00
2023-04-14T07:00:46.889Z,1461.00
2023-04-14T07:01:46.909Z,1451.00
2023-04-14T07:02:46.952Z,1439.00
2023-04-14T07:03:46.935Z,1434.00
2023-04-14T07:04:47.055Z,1428.00
2023-04-14T07:05:47.010Z,1424.00
2023-04-14T07:06:47.108Z,1420.00
2023-04-14T07:07:47.116Z,1412.00
2023-04-14T07:08:47.137Z,1392.00
2023-04-14T07:09:47.229Z,1381.00
2023-04-14T07:10:47.230Z,1374.00
2023-04-14T07:11:47.304Z,1372.00
2023-04-14T07:12:47.327Z,1365.00
2023-04-14T07:13:47.410Z,1356.00
2023-04-14T07:14:47.416Z,1351.00
2023-04-14T07:15:47.529Z,1348.00
2023-04-14T07:16:47.559Z,1339.00
2023-04-14T07:17:47.592Z,1334.00
2023-04-14T07:18:47.680Z,1324.00
2023-04-14T07:19:47.683Z,1317.00
2023-04-14T07:20:47.738Z,1307.00
2023-04-14T07:21:47.805Z,1307.00
2023-04-14T07:22:47.842Z,1302.00
2023-04-14T07:23:47.920Z,1253.00
2023-04-14T07:24:47.978Z,1236.00
2023-04-14T07:25:48.015Z,1286.00
2023-04-14T07:26:48.051Z,1296.00
2023-04-14T07:28:00.352Z,1290.00
2023-04-14T07:28:49.132Z,1237.00
2023-04-14T07:29:48.135Z,1229.00
2023-04-14T07:30:48.109Z,1236.00
2023-04-14T07:31:48.164Z,1258.00
2023-04-14T07:32:48.236Z,1275.00
2023-04-14T07:33:48.093Z,1372.00
2023-04-14T07:34:48.546Z,1191.00
2023-04-14T07:36:00.696Z,1195.00
2023-04-14T07:36:49.061Z,1198.00
2023-04-14T07:37:48.158Z,1198.00
2023-04-14T07:38:48.054Z,1202.00
2023-04-14T07:39:48.043Z,1201.00
2023-04-14T07:40:48.105Z,1205.00
2023-04-14T07:41:48.011Z,1201.00
2023-04-14T07:42:48.019Z,1257.00
2023-04-14T07:43:48.111Z,1243.00
2023-04-14T07:44:47.993Z,1240.00
2023-04-14T07:45:48.036Z,1243.00
2023-04-14T07:46:48.055Z,1320.00
2023-04-14T07:47:48.112Z,1308.00
2023-04-14T07:48:48.087Z,1314.00
2023-04-14T07:49:48.178Z,1318.00
2023-04-14T07:50:48.188Z,1387.00
2023-04-14T07:51:48.222Z,1343.00
2023-04-14T07:52:48.261Z,1342.00
2023-04-14T07:53:48.295Z,1370.00
2023-04-14T07:54:48.386Z,1373.00
2023-04-14T07:55:48.354Z,1370.00
2023-04-14T07:56:48.404Z,1376.00
2023-04-14T07:57:48.471Z,1382.00
2023-04-14T07:58:48.440Z,1385.00
2023-04-14T07:59:48.449Z,1387.00
2023-04-14T08:00:48.508Z,1389.00
2023-04-14T08:01:48.647Z,1404.00
2023-04-14T08:02:48.636Z,1429.00
2023-04-14T08:03:48.818Z,1432.00
2023-04-14T08:04:48.527Z,1447.00
2023-04-14T08:05:48.693Z,1469.00
2023-04-14T08:06:48.540Z,1499.00
2023-04-14T08:07:48.564Z,1511.00
2023-04-14T08:08:48.595Z,1531.00
2023-04-14T08:09:48.557Z,1541.00
2023-04-14T08:10:48.572Z,1545.00
2023-04-14T08:11:48.600Z,1538.00
2023-04-14T08:12:48.602Z,1623.00
2023-04-14T08:13:48.549Z,1629.00
2023-04-14T08:14:48.562Z,1626.00
2023-04-14T08:15:48.641Z,1630.00
2023-04-14T08:16:48.705Z,1629.00
2023-04-14T08:17:48.569Z,1630.00
2023-04-14T08:18:48.597Z,1612.00
2023-04-14T08:19:48.628Z,1609.00
2023-04-14T08:20:48.580Z,1604.00
2023-04-14T08:21:48.647Z,1652.00
2023-04-14T08:22:48.695Z,1644.00
2023-04-14T08:23:48.716Z,1639.00
2023-04-14T08:24:49.031Z,1639.00
2023-04-14T08:25:48.803Z,1649.00
2023-04-14T08:26:49.236Z,1694.00
2023-04-14T08:27:48.800Z,1707.00
2023-04-14T08:28:48.944Z,1701.00
2023-04-14T08:29:48.909Z,1694.00
2023-04-14T08:30:48.992Z,1799.00
2023-04-14T08:31:49.540Z,1808.00
2023-04-14T08:32:49.140Z,1803.00
2023-04-14T08:33:50.026Z,1805.00
2023-04-14T08:35:38.486Z,1828.00
2023-04-14T08:35:59.384Z,1932.00
2023-04-14T08:36:52.393Z,1923.00
2023-04-14T08:37:49.150Z,1921.00
2023-04-14T08:38:49.122Z,1910.00
2023-04-14T08:39:49.153Z,1899.00
2023-04-14T08:40:49.120Z,1895.00
2023-04-14T08:41:49.547Z,1893.00
2023-04-14T08:42:49.121Z,1906.00
2023-04-14T08:43:49.133Z,1793.00
2023-04-14T08:44:49.139Z,1823.00
2023-04-14T08:45:49.148Z,1844.00
2023-04-14T08:46:49.617Z,1834.00
2023-04-14T08:47:49.144Z,1826.00
2023-04-14T08:48:49.146Z,1801.00
2023-04-14T08:49:49.544Z,1756.00
2023-04-14T08:50:49.070Z,1754.00
2023-04-14T08:51:49.048Z,1737.00
2023-04-14T08:52:49.104Z,1743.00
2023-04-14T08:53:49.070Z,1743.00
2023-04-14T08:54:49.535Z,1738.00
2023-04-14T08:55:49.023Z,1724.00
2023-04-14T08:56:49.100Z,1697.00
2023-04-14T08:57:49.039Z,1699.00
2023-04-14T08:58:48.983Z,1703.00
2023-04-14T08:59:48.991Z,1703.00
2023-04-14T09:00:48.989Z,1682.00
2023-04-14T09:01:49.150Z,1678.00
2023-04-14T09:02:49.051Z,1711.00
2023-04-14T09:03:49.147Z,1707.00
2023-04-14T09:04:49.056Z,1646.00
2023-04-14T09:05:48.924Z,1642.00
2023-04-14T09:06:48.994Z,1638.00
2023-04-14T09:07:48.919Z,1634.00
2023-04-14T09:08:48.943Z,1631.00
2023-04-14T09:09:49.013Z,1628.00
2023-04-14T09:10:49.087Z,1629.00
2023-04-14T09:11:49.553Z,1628.00
2023-04-14T09:12:49.226Z,1653.00
2023-04-14T09:13:49.249Z,1643.00
2023-04-14T09:14:49.355Z,1629.00
2023-04-14T09:15:49.391Z,1629.00
2023-04-14T09:16:49.583Z,1627.00
2023-04-14T09:17:49.488Z,1632.00
2023-04-14T09:18:50.076Z,1641.00
2023-04-14T09:20:34.963Z,1638.00
2023-04-14T09:21:50.472Z,1643.00
2023-04-14T09:21:54.346Z,1643.00
2023-04-14T09:22:49.503Z,1643.00
2023-04-14T09:23:49.496Z,1656.00
2023-04-14T09:24:49.602Z,1648.00
2023-04-14T09:25:49.592Z,1641.00
2023-04-14T09:26:49.681Z,1626.00
2023-04-14T09:27:49.748Z,1654.00
2023-04-14T09:28:49.765Z,1630.00
2023-04-14T09:29:49.902Z,1621.00
2023-04-14T09:30:49.869Z,1628.00
2023-04-14T09:31:49.949Z,1648.00
2023-04-14T09:32:49.999Z,1663.00
2023-04-14T09:33:50.078Z,1767.00
2023-04-14T09:34:50.082Z,1827.00
2023-04-14T09:35:50.594Z,1831.00
2023-04-14T09:36:50.577Z,1821.00
2023-04-14T09:37:50.233Z,1805.00
2023-04-14T09:38:50.265Z,1800.00
2023-04-14T09:39:50.327Z,1793.00
2023-04-14T09:40:50.552Z,1787.00
2023-04-14T09:41:50.442Z,1793.00
2023-04-14T09:42:50.443Z,1792.00
2023-04-14T09:43:50.531Z,1791.00
2023-04-14T09:44:50.487Z,1790.00
2023-04-14T09:45:50.581Z,1785.00
2023-04-14T09:46:50.563Z,1781.00
2023-04-14T09:47:50.644Z,1780.00
2023-04-14T09:48:50.624Z,1777.00
2023-04-14T09:49:50.698Z,1776.00
2023-04-14T09:50:50.727Z,1774.00
2023-04-14T09:51:50.753Z,1768.00
2023-04-14T09:52:50.837Z,1768.00
2023-04-14T09:53:50.871Z,1763.00
2023-04-14T09:54:50.909Z,1761.00
2023-04-14T09:55:51.001Z,1762.00
2023-04-14T09:56:51.101Z,1759.00
2023-04-14T09:57:51.563Z,1757.00
2023-04-14T09:58:51.166Z,1756.00
2023-04-14T09:59:51.215Z,1756.00
2023-04-14T10:00:51.270Z,1753.00
2023-04-14T10:01:51.534Z,1757.00
2023-04-14T10:02:51.485Z,1757.00
2023-04-14T10:03:51.538Z,1749.00
2023-04-14T10:04:51.564Z,1750.00
2023-04-14T10:05:51.517Z,1746.00
2023-04-14T10:06:51.588Z,1746.00
2023-04-14T10:07:51.722Z,1743.00
2023-04-14T10:08:51.591Z,1744.00
2023-04-14T10:09:51.598Z,1743.00
2023-04-14T10:10:51.636Z,1745.00
2023-04-14T10:11:51.587Z,1748.00
2023-04-14T10:12:51.593Z,1746.00
2023-04-14T10:13:51.604Z,1745.00
2023-04-14T10:14:51.578Z,1741.00
2023-04-14T10:15:51.624Z,1737.00
2023-04-14T10:16:51.568Z,1735.00
2023-04-14T10:17:51.594Z,1729.00
2023-04-14T10:18:51.568Z,1729.00
2023-04-14T10:19:51.682Z,1731.00
2023-04-14T10:20:51.562Z,1727.00
2023-04-14T10:21:51.569Z,1731.00
2023-04-14T10:22:51.594Z,1731.00
2023-04-14T10:23:51.702Z,1730.00
2023-04-14T10:24:51.670Z,1726.00
2023-04-14T10:25:52.080Z,1720.00
2023-04-14T10:26:51.557Z,1720.00
2023-04-14T10:27:51.653Z,1714.00
2023-04-14T10:28:51.621Z,1716.00
2023-04-14T10:29:51.608Z,1716.00
2023-04-14T10:30:51.544Z,1764.00
2023-04-14T10:31:53.745Z,1756.00
2023-04-14T10:32:51.636Z,1771.00
2023-04-14T10:33:51.609Z,1842.00
2023-04-14T10:34:51.595Z,1862.00
2023-04-14T10:35:51.603Z,1879.00
2023-04-14T10:36:51.689Z,1881.00
2023-04-14T10:37:52.102Z,1884.00
2023-04-14T10:38:51.786Z,1957.00
2023-04-14T10:39:51.870Z,1970.00
2023-04-14T10:40:52.140Z,1999.00
2023-04-14T10:41:52.594Z,2150.00
2023-04-14T10:42:52.031Z,2122.00
2023-04-14T10:43:52.169Z,2169.00
2023-04-14T10:44:52.146Z,2209.00
2023-04-14T10:45:52.231Z,2223.00
2023-04-14T10:46:52.408Z,2227.00
2023-04-14T10:47:52.328Z,2305.00
2023-04-14T10:48:52.387Z,2317.00
2023-04-14T10:49:52.408Z,2310.00
2023-04-14T10:50:52.545Z,2297.00
2023-04-14T10:51:52.542Z,2344.00
2023-04-14T10:52:53.187Z,2472.00
2023-04-14T10:53:53.570Z,2447.00
2023-04-14T10:54:52.697Z,2457.00
2023-04-14T10:55:53.088Z,2037.00
2023-04-14T10:56:52.750Z,1637.00
2023-04-14T10:57:53.087Z,1599.00
2023-04-14T10:58:53.580Z,1600.00
2023-04-14T10:59:55.605Z,1567.00
2023-04-14T11:00:52.810Z,1422.00
2023-04-14T11:01:52.916Z,1429.00
2023-04-14T11:02:53.245Z,1365.00
2023-04-14T11:03:53.037Z,1246.00
2023-04-14T11:04:52.759Z,1238.00
2023-04-14T11:05:53.633Z,1196.00
2023-04-14T11:06:53.662Z,1119.00
2023-04-14T11:07:53.103Z,1255.00
2023-04-14T11:08:52.713Z,1207.00
2023-04-14T11:09:52.707Z,1250.00
2023-04-14T11:10:52.711Z,1256.00
2023-04-14T11:11:52.710Z,1243.00
2023-04-14T11:12:53.139Z,1246.00
2023-04-14T11:13:52.757Z,1387.00
2023-04-14T11:14:52.751Z,1369.00
2023-04-14T11:15:53.126Z,1360.00
2023-04-14T11:17:02.460Z,1361.00
2023-04-14T11:17:53.744Z,1362.00
2023-04-14T11:18:52.677Z,1367.00
2023-04-14T11:19:52.643Z,1371.00
2023-04-14T11:20:52.641Z,1376.00
2023-04-14T11:21:52.647Z,1376.00
2023-04-14T11:22:52.636Z,1377.00
2023-04-14T11:23:53.601Z,1379.00
2023-04-14T11:24:52.625Z,1379.00
2023-04-14T11:25:52.633Z,1380.00
2023-04-14T11:26:52.600Z,1380.00
2023-04-14T11:27:52.694Z,1379.00
2023-04-14T11:28:52.635Z,1381.00
2023-04-14T11:29:52.579Z,1383.00
2023-04-14T11:30:52.592Z,1380.00
2023-04-14T11:31:52.657Z,1378.00
2023-04-14T11:32:52.720Z,1377.00
2023-04-14T11:33:52.556Z,1377.00
2023-04-14T11:34:52.517Z,1377.00
2023-04-14T11:35:52.530Z,1377.00
2023-04-14T11:36:52.602Z,1376.00
2023-04-14T11:37:52.607Z,1376.00
2023-04-14T11:38:52.517Z,1373.00
2023-04-14T11:39:52.503Z,1372.00
2023-04-14T11:40:52.477Z,1370.00
2023-04-14T11:41:52.512Z,1368.00
2023-04-14T11:42:52.471Z,1369.00
2023-04-14T11:43:52.550Z,1369.00
2023-04-14T11:44:52.458Z,1370.00
2023-04-14T11:45:52.612Z,1369.00
2023-04-14T11:46:52.444Z,1369.00
2023-04-14T11:47:52.460Z,1371.00
2023-04-14T11:48:52.418Z,1371.00
2023-04-14T11:49:52.444Z,1367.00
2023-04-14T11:50:52.412Z,1369.00
2023-04-14T11:51:52.389Z,1369.00
2023-04-14T11:52:52.403Z,1369.00
2023-04-14T11:53:52.383Z,1369.00
2023-04-14T11:54:52.395Z,1369.00
2023-04-14T11:55:52.364Z,1368.00
2023-04-14T11:56:52.359Z,1367.00
2023-04-14T11:57:52.378Z,1368.00
2023-04-14T11:58:52.363Z,1368.00
2023-04-14T11:59:52.368Z,1369.00
2023-04-14T12:00:54.200Z,1373.00
2023-04-14T12:01:52.369Z,1374.00
2023-04-14T12:02:52.499Z,1372.00
2023-04-14T12:03:52.376Z,1371.00
2023-04-14T12:04:52.580Z,1371.00
2023-04-14T12:05:52.306Z,1369.00
2023-04-14T12:06:53.200Z,1369.00
2023-04-14T12:07:52.428Z,1368.00
2023-04-14T12:08:52.511Z,1369.00
2023-04-14T12:09:52.518Z,1369.00
2023-04-14T12:10:52.572Z,1372.00
2023-04-14T12:11:52.664Z,1373.00
2023-04-14T12:12:52.637Z,1370.00
2023-04-14T12:13:52.719Z,1368.00
2023-04-14T12:14:52.676Z,1368.00
2023-04-14T12:15:52.799Z,1369.00
2023-04-14T12:16:52.648Z,1368.00